createdAt,value
2018-05-17T00:02:14.808Z,15.00
2018-05-17T00:04:42.528Z,12.83
2018-05-17T00:07:10.231Z,12.10
2018-05-17T00:09:37.698Z,16.90
2018-05-17T00:12:05.163Z,14.73
2018-05-17T00:14:32.917Z,16.87
2018-05-17T00:17:00.362Z,14.50
2018-05-17T00:19:27.825Z,13.60
2018-05-17T00:21:55.287Z,12.27
2018-05-17T00:24:22.744Z,15.57
2018-05-17T00:26:50.655Z,16.30
2018-05-17T00:29:18.525Z,14.70
2018-05-17T00:31:48.405Z,14.07
2018-05-17T00:34:17.906Z,20.20
2018-05-17T00:36:46.731Z,17.40
2018-05-17T00:39:14.181Z,21.87
2018-05-17T00:41:41.641Z,20.13
2018-05-17T00:44:09.095Z,16.63
2018-05-17T00:46:37.352Z,20.60
2018-05-17T00:49:04.817Z,19.17
2018-05-17T00:51:32.270Z,16.77
2018-05-17T00:53:59.756Z,16.20
2018-05-17T00:56:27.213Z,16.87
2018-05-17T00:58:56.837Z,15.70
2018-05-17T01:01:25.773Z,16.83
2018-05-17T01:03:53.800Z,17.77
2018-05-17T01:06:22.028Z,18.57
2018-05-17T01:08:49.484Z,19.33
2018-05-17T01:11:17.370Z,20.10
2018-05-17T01:13:44.825Z,20.07
2018-05-17T01:16:12.272Z,21.20
2018-05-17T01:18:39.747Z,23.67
2018-05-17T01:21:07.443Z,18.90
2018-05-17T01:23:34.899Z,22.13
2018-05-17T01:26:02.381Z,24.00
2018-05-17T01:28:30.277Z,23.50
2018-05-17T01:30:57.755Z,25.57
2018-05-17T01:33:25.212Z,24.10
2018-05-17T01:35:54.004Z,22.83
2018-05-17T01:38:27.181Z,28.03
2018-05-17T01:40:55.296Z,22.17
2018-05-17T01:43:22.768Z,28.60
2018-05-17T01:45:50.234Z,36.83
2018-05-17T01:48:17.807Z,28.60
2018-05-17T01:50:45.901Z,31.00
2018-05-17T01:53:13.612Z,23.93
2018-05-17T01:55:41.494Z,30.87
2018-05-17T01:58:08.976Z,28.80
2018-05-17T02:00:36.431Z,27.97
2018-05-17T02:03:06.441Z,26.03
2018-05-17T02:05:34.465Z,28.07
2018-05-17T02:08:02.354Z,32.00
2018-05-17T02:10:29.820Z,30.13
2018-05-17T02:12:57.282Z,30.73
2018-05-17T02:15:24.791Z,25.07
2018-05-17T02:17:53.023Z,28.40
2018-05-17T02:20:21.738Z,30.03
2018-05-17T02:22:52.104Z,30.03
2018-05-17T02:25:19.551Z,26.80
2018-05-17T02:27:47.416Z,26.67
2018-05-17T02:30:14.898Z,29.37
2018-05-17T02:32:42.927Z,25.63
2018-05-17T02:35:11.135Z,28.47
2018-05-17T02:37:38.605Z,38.40
2018-05-17T02:40:06.056Z,29.20
2018-05-17T02:42:33.519Z,27.87
2018-05-17T02:45:01.543Z,27.47
2018-05-17T02:47:29.919Z,28.23
2018-05-17T02:49:58.133Z,29.57
2018-05-17T02:52:25.596Z,28.57
2018-05-17T02:54:53.313Z,28.90
2018-05-17T02:57:21.564Z,27.20
2018-05-17T02:59:49.023Z,32.73
2018-05-17T03:02:16.489Z,30.53
2018-05-17T03:04:44.805Z,26.67
2018-05-17T03:07:12.266Z,30.00
2018-05-17T03:09:40.289Z,28.93
2018-05-17T03:12:07.744Z,30.40
2018-05-17T03:14:35.639Z,33.43
2018-05-17T03:17:03.864Z,31.77
2018-05-17T03:19:31.327Z,36.53
2018-05-17T03:21:58.790Z,33.93
2018-05-17T03:24:26.243Z,33.13
2018-05-17T03:26:54.108Z,31.53
2018-05-17T03:29:21.590Z,35.93
2018-05-17T03:31:49.042Z,31.27
2018-05-17T03:34:16.507Z,36.50
2018-05-17T03:36:45.013Z,32.90
2018-05-17T03:39:12.467Z,30.03
2018-05-17T03:41:39.948Z,37.80
2018-05-17T03:44:07.420Z,31.80
2018-05-17T03:46:37.292Z,34.30
2018-05-17T03:49:04.761Z,28.77
2018-05-17T03:51:34.080Z,31.40
2018-05-17T03:54:01.532Z,31.93
2018-05-17T03:56:29.530Z,30.40
2018-05-17T03:58:56.999Z,32.70
2018-05-17T04:01:36.915Z,29.47
2018-05-17T04:04:17.136Z,27.53
2018-05-17T04:06:45.363Z,27.27
2018-05-17T04:09:12.827Z,29.03
2018-05-17T04:11:40.972Z,27.40
2018-05-17T04:14:08.430Z,21.63
2018-05-17T04:16:36.431Z,24.17
2018-05-17T04:19:03.896Z,20.20
2018-05-17T04:21:31.348Z,25.10
2018-05-17T04:23:59.240Z,33.47
2018-05-17T04:26:27.728Z,30.73
2018-05-17T04:28:56.092Z,26.93
2018-05-17T04:31:23.548Z,24.97
2018-05-17T04:33:51.009Z,20.23
2018-05-17T04:36:18.468Z,22.57
2018-05-17T04:38:46.693Z,19.87
2018-05-17T04:41:14.153Z,22.67
2018-05-17T04:43:41.628Z,23.10
2018-05-17T04:46:09.093Z,19.07
2018-05-17T04:48:36.555Z,18.27
2018-05-17T04:51:04.021Z,20.13
2018-05-17T04:53:31.479Z,20.47
2018-05-17T04:55:59.160Z,24.23
2018-05-17T04:58:27.375Z,19.93
2018-05-17T05:00:54.831Z,18.60
2018-05-17T05:03:22.848Z,22.30
2018-05-17T05:05:51.076Z,16.40
2018-05-17T05:08:18.537Z,17.30
2018-05-17T05:10:45.999Z,18.30
2018-05-17T05:13:18.791Z,14.67
2018-05-17T05:15:46.962Z,20.67
2018-05-17T05:18:14.423Z,20.73
2018-05-17T05:20:42.584Z,14.93
2018-05-17T05:23:10.045Z,19.87
2018-05-17T05:25:37.940Z,15.27
2018-05-17T05:28:05.426Z,15.87
2018-05-17T05:30:33.640Z,16.20
2018-05-17T05:33:13.624Z,17.00
2018-05-17T05:35:41.084Z,12.93
2018-05-17T05:38:08.541Z,15.93
2018-05-17T05:40:36.948Z,15.37
2018-05-17T05:43:04.400Z,13.97
2018-05-17T05:45:31.882Z,15.03
2018-05-17T05:47:59.752Z,14.77
2018-05-17T05:50:30.688Z,15.20
2018-05-17T05:52:58.732Z,16.07
2018-05-17T05:55:26.624Z,15.37
2018-05-17T05:57:54.098Z,14.23
2018-05-17T06:00:21.564Z,13.67
2018-05-17T06:02:49.017Z,15.50
2018-05-17T06:05:17.637Z,13.33
2018-05-17T06:07:46.266Z,18.03
2018-05-17T06:10:14.176Z,16.83
2018-05-17T06:12:41.654Z,11.10
2018-05-17T06:15:09.894Z,10.20
2018-05-17T06:17:37.353Z,11.97
2018-05-17T06:20:04.813Z,13.33
2018-05-17T06:22:32.701Z,14.10
2018-05-17T06:25:00.149Z,16.87
2018-05-17T06:27:28.417Z,16.57
2018-05-17T06:29:55.876Z,8.63
2018-05-17T06:32:23.336Z,15.50
2018-05-17T06:34:51.613Z,10.33
2018-05-17T06:37:19.071Z,15.40
2018-05-17T06:39:46.536Z,16.67
2018-05-17T06:42:14.020Z,18.50
2018-05-17T06:44:42.233Z,18.23
2018-05-17T06:47:09.687Z,12.93
2018-05-17T06:49:37.557Z,16.70
2018-05-17T06:52:05.028Z,12.50
2018-05-17T06:54:32.488Z,10.97
2018-05-17T06:56:59.953Z,10.57
2018-05-17T07:02:10.129Z,15.87
2018-05-17T07:04:37.600Z,12.77
2018-05-17T07:07:05.952Z,14.13
2018-05-17T07:09:33.405Z,15.23
2018-05-17T07:12:00.892Z,17.20
2018-05-17T07:14:29.124Z,14.10
2018-05-17T07:16:56.584Z,11.67
2018-05-17T07:19:24.082Z,9.33
2018-05-17T07:21:52.344Z,9.93
2018-05-17T07:24:20.416Z,13.33
2018-05-17T07:26:48.337Z,13.27
2018-05-17T07:29:15.794Z,9.37
2018-05-17T07:31:44.434Z,14.43
2018-05-17T07:34:12.169Z,10.40
2018-05-17T07:36:39.662Z,19.40
2018-05-17T07:39:07.993Z,13.97
2018-05-17T07:41:35.817Z,16.40
2018-05-17T07:44:04.050Z,15.70
2018-05-17T07:46:31.524Z,10.67
2018-05-17T07:48:59.609Z,13.43
2018-05-17T07:51:27.900Z,12.73
2018-05-17T07:53:55.911Z,14.80
2018-05-17T07:56:26.224Z,14.20
2018-05-17T07:58:54.112Z,13.83
2018-05-17T08:01:22.131Z,10.47
2018-05-17T08:03:51.084Z,12.97
2018-05-17T08:06:18.555Z,20.23
2018-05-17T08:08:47.137Z,12.63
2018-05-17T08:11:15.089Z,11.60
2018-05-17T08:13:42.528Z,13.37
2018-05-17T08:16:10.369Z,9.63
2018-05-17T08:18:37.832Z,12.67
2018-05-17T08:21:05.284Z,11.27
2018-05-17T08:23:32.748Z,10.77
2018-05-17T08:26:00.201Z,12.60
2018-05-17T08:28:27.684Z,15.13
2018-05-17T08:30:55.270Z,15.17
2018-05-17T08:33:23.143Z,10.33
2018-05-17T08:35:51.361Z,12.93
2018-05-17T08:38:18.839Z,13.60
2018-05-17T08:40:46.628Z,11.47
2018-05-17T08:43:14.507Z,12.10
2018-05-17T08:45:42.826Z,13.70
2018-05-17T08:48:10.204Z,12.00
2018-05-17T08:50:37.663Z,11.00
2018-05-17T08:53:05.549Z,10.40
2018-05-17T08:55:33.006Z,14.40
2018-05-17T08:58:00.458Z,14.83
2018-05-17T09:00:27.920Z,11.10
2018-05-17T09:02:55.381Z,11.37
2018-05-17T09:05:23.549Z,7.67
2018-05-17T09:07:51.807Z,15.17
2018-05-17T09:10:19.292Z,10.60
2018-05-17T09:12:46.740Z,12.23
2018-05-17T09:15:14.192Z,19.67
2018-05-17T09:17:41.652Z,6.87
2018-05-17T09:20:09.201Z,12.23
2018-05-17T09:22:36.581Z,11.50
2018-05-17T09:25:05.065Z,9.73
2018-05-17T09:27:33.787Z,11.47
2018-05-17T09:30:01.482Z,12.03
2018-05-17T09:32:28.948Z,8.80
2018-05-17T09:34:56.422Z,10.43
2018-05-17T09:37:23.869Z,8.13
2018-05-17T09:39:51.320Z,10.27
2018-05-17T09:42:18.775Z,9.33
2018-05-17T09:44:46.228Z,8.47
2018-05-17T09:47:14.103Z,10.40
2018-05-17T09:49:41.553Z,6.50
2018-05-17T09:52:09.581Z,11.07
2018-05-17T09:54:37.028Z,11.80
2018-05-17T09:57:04.755Z,9.63
2018-05-17T09:59:32.547Z,9.90
2018-05-17T10:02:01.192Z,8.47
2018-05-17T10:04:29.997Z,10.80
2018-05-17T10:06:57.458Z,12.40
2018-05-17T10:09:25.059Z,8.90
2018-05-17T10:11:52.525Z,10.45
2018-05-17T10:14:20.054Z,7.87
2018-05-17T10:16:48.328Z,11.43
2018-05-17T10:19:16.811Z,9.57
2018-05-17T10:21:45.440Z,8.65
2018-05-17T10:24:14.014Z,9.93
2018-05-17T10:26:41.641Z,9.70
2018-05-17T10:29:09.931Z,10.02
2018-05-17T10:31:37.477Z,8.32
2018-05-17T10:34:05.993Z,9.95
2018-05-17T10:36:33.609Z,10.52
2018-05-17T10:39:02.028Z,8.38
2018-05-17T10:41:30.000Z,8.23
2018-05-17T10:43:58.047Z,11.07
2018-05-17T10:46:25.789Z,9.20
2018-05-17T10:48:54.044Z,8.20
2018-05-17T10:51:22.116Z,10.38
2018-05-17T10:53:49.569Z,10.68
2018-05-17T10:56:17.143Z,11.00
2018-05-17T10:58:45.820Z,6.55
2018-05-17T11:01:13.282Z,11.38
2018-05-17T11:03:41.286Z,6.80
2018-05-17T11:06:08.813Z,13.35
2018-05-17T11:08:36.293Z,10.10
2018-05-17T11:11:04.157Z,9.48
2018-05-17T11:13:33.166Z,10.38
2018-05-17T11:16:00.674Z,7.43
2018-05-17T11:18:28.530Z,7.50
2018-05-17T11:20:56.151Z,8.07
2018-05-17T11:23:23.803Z,7.87
2018-05-17T11:25:52.090Z,9.15
2018-05-17T11:28:20.407Z,9.43
2018-05-17T11:30:47.947Z,11.07
2018-05-17T11:33:15.996Z,11.60
2018-05-17T11:35:43.695Z,11.80
2018-05-17T11:38:11.217Z,12.65
2018-05-17T11:40:39.088Z,9.82
2018-05-17T11:43:06.569Z,7.03
2018-05-17T11:45:34.408Z,7.82
2018-05-17T11:48:01.904Z,10.20
2018-05-17T11:50:29.432Z,6.28
2018-05-17T11:52:56.817Z,8.18
2018-05-17T11:55:24.264Z,9.70
2018-05-17T11:57:51.833Z,9.90
2018-05-17T12:00:19.389Z,13.50
2018-05-17T12:02:53.511Z,12.90
2018-05-17T12:05:20.977Z,13.55
2018-05-17T12:07:48.628Z,12.77
2018-05-17T12:10:16.083Z,11.45
2018-05-17T12:12:45.043Z,8.82
2018-05-17T12:15:12.540Z,12.27
2018-05-17T12:17:39.997Z,11.35
2018-05-17T12:20:07.482Z,9.15
2018-05-17T12:22:35.724Z,10.25
2018-05-17T12:25:03.168Z,6.22
2018-05-17T12:27:31.203Z,10.80
2018-05-17T12:29:58.846Z,7.72
2018-05-17T12:32:27.090Z,9.75
2018-05-17T12:34:54.621Z,11.88
2018-05-17T12:37:22.104Z,8.75
2018-05-17T12:39:49.551Z,10.82
2018-05-17T12:42:17.033Z,14.85
2018-05-17T12:44:44.497Z,8.80
2018-05-17T12:47:12.736Z,16.67
2018-05-17T12:49:40.215Z,10.27
2018-05-17T12:52:07.671Z,7.72
2018-05-17T12:54:35.585Z,10.90
2018-05-17T12:57:03.046Z,15.00
2018-05-17T12:59:30.529Z,12.93
2018-05-17T13:01:57.986Z,9.88
2018-05-17T13:04:25.452Z,12.07
2018-05-17T13:06:53.370Z,8.23
2018-05-17T13:09:20.812Z,10.18
2018-05-17T13:11:49.048Z,10.13
2018-05-17T13:14:16.506Z,8.05
2018-05-17T13:16:43.972Z,11.45
2018-05-17T13:19:11.530Z,11.77
2018-05-17T13:21:39.089Z,10.18
2018-05-17T13:24:06.634Z,13.45
2018-05-17T13:26:34.543Z,11.27
2018-05-17T13:29:02.076Z,11.75
2018-05-17T13:31:29.647Z,16.87
2018-05-17T13:33:57.504Z,9.43
2018-05-17T13:36:25.275Z,10.32
2018-05-17T13:38:54.035Z,13.52
2018-05-17T13:41:23.227Z,13.65
2018-05-17T13:43:51.208Z,14.02
2018-05-17T13:46:18.688Z,11.95
2018-05-17T13:48:46.155Z,13.43
2018-05-17T13:51:13.625Z,13.80
2018-05-17T13:53:42.039Z,11.68
2018-05-17T13:56:09.573Z,9.48
2018-05-17T13:58:38.758Z,11.80
2018-05-17T14:01:06.740Z,16.30
2018-05-17T14:03:34.972Z,17.15
2018-05-17T14:06:02.453Z,14.38
2018-05-17T14:08:30.631Z,17.05
2018-05-17T14:10:58.090Z,13.15
2018-05-17T14:13:25.531Z,16.35
2018-05-17T14:15:53.273Z,17.17
2018-05-17T14:18:21.626Z,13.90
2018-05-17T14:20:49.082Z,15.60
2018-05-17T14:23:16.593Z,18.25
2018-05-17T14:25:44.955Z,16.27
2018-05-17T14:28:12.416Z,17.92
2018-05-17T14:30:39.886Z,16.33
2018-05-17T14:33:07.477Z,16.00
2018-05-17T14:35:34.927Z,16.02
2018-05-17T14:38:02.388Z,18.52
2018-05-17T14:40:29.902Z,21.98
2018-05-17T14:42:57.676Z,20.12
2018-05-17T14:45:25.152Z,17.90
2018-05-17T14:47:53.412Z,12.48
2018-05-17T14:50:21.569Z,14.30
2018-05-17T14:52:49.136Z,16.77
2018-05-17T14:55:17.433Z,18.52
2018-05-17T14:57:44.867Z,12.25
2018-05-17T15:00:12.849Z,16.00
2018-05-17T15:02:40.741Z,15.35
2018-05-17T15:05:08.972Z,15.98
2018-05-17T15:07:36.428Z,19.00
2018-05-17T15:10:05.835Z,18.37
2018-05-17T15:12:33.287Z,16.15
2018-05-17T15:15:00.751Z,20.80
2018-05-17T15:17:28.222Z,17.15
2018-05-17T15:19:55.673Z,16.87
2018-05-17T15:22:23.128Z,16.23
2018-05-17T15:24:50.591Z,18.25
2018-05-17T15:27:18.153Z,15.05
2018-05-17T15:29:47.451Z,16.67
2018-05-17T15:32:16.283Z,16.37
2018-05-17T15:34:45.287Z,20.25
2018-05-17T15:37:12.851Z,15.35
2018-05-17T15:39:40.336Z,13.00
2018-05-17T15:42:07.812Z,12.90
2018-05-17T15:44:35.359Z,15.73
2018-05-17T15:47:02.835Z,16.05
2018-05-17T15:49:31.056Z,16.95
2018-05-17T15:51:58.513Z,16.70
2018-05-17T15:54:26.012Z,13.30
2018-05-17T15:56:53.459Z,12.65
2018-05-17T15:59:20.921Z,12.07
2018-05-17T16:01:48.384Z,13.50
2018-05-17T16:04:15.849Z,17.27
2018-05-17T16:06:43.391Z,13.62
2018-05-17T16:09:12.359Z,14.10
2018-05-17T16:11:39.848Z,18.67
2018-05-17T16:14:07.312Z,13.88
2018-05-17T16:16:34.827Z,15.93
2018-05-17T16:19:02.292Z,14.27
2018-05-17T16:21:29.759Z,13.68
2018-05-17T16:23:57.211Z,16.48
2018-05-17T16:26:24.684Z,13.52
2018-05-17T16:28:52.149Z,12.55
2018-05-17T16:31:20.200Z,17.20
2018-05-17T16:33:47.655Z,18.23
2018-05-17T16:36:15.111Z,16.17
2018-05-17T16:38:42.584Z,12.05
2018-05-17T16:41:10.049Z,16.45
2018-05-17T16:43:38.180Z,13.73
2018-05-17T16:46:05.650Z,14.07
2018-05-17T16:48:33.122Z,15.93
2018-05-17T16:51:00.679Z,13.80
2018-05-17T16:53:28.238Z,17.25
2018-05-17T16:55:55.800Z,13.77
2018-05-17T16:58:23.263Z,12.70
2018-05-17T17:00:50.748Z,12.52
2018-05-17T17:03:18.973Z,20.10
2018-05-17T17:05:46.933Z,16.70
2018-05-17T17:08:15.125Z,13.93
2018-05-17T17:10:42.592Z,19.60
2018-05-17T17:13:10.255Z,16.98
2018-05-17T17:15:37.811Z,15.25
2018-05-17T17:18:05.291Z,15.65
2018-05-17T17:20:32.869Z,17.17
2018-05-17T17:23:01.118Z,14.05
2018-05-17T17:25:28.660Z,13.98
2018-05-17T17:27:56.219Z,14.18
2018-05-17T17:30:23.794Z,19.90
2018-05-17T17:32:51.235Z,15.65
2018-05-17T17:35:18.907Z,14.02
2018-05-17T17:37:46.364Z,13.60
2018-05-17T17:40:13.824Z,12.57
2018-05-17T17:42:41.668Z,14.77
2018-05-17T17:45:09.128Z,15.30
2018-05-17T17:47:36.581Z,14.10
2018-05-17T17:50:04.812Z,11.40
2018-05-17T17:52:33.037Z,15.27
2018-05-17T17:55:00.496Z,11.57
2018-05-17T17:57:27.952Z,13.93
2018-05-17T17:59:55.685Z,16.63
2018-05-17T18:02:23.136Z,15.18
2018-05-17T18:04:51.426Z,11.93
2018-05-17T18:07:19.984Z,17.60
2018-05-17T18:09:48.048Z,10.53
2018-05-17T18:12:17.459Z,17.67
2018-05-17T18:14:46.609Z,11.30
2018-05-17T18:17:14.546Z,15.80
2018-05-17T18:19:43.725Z,15.60
2018-05-17T18:22:11.609Z,15.27
2018-05-17T18:24:39.854Z,18.93
2018-05-17T18:27:08.138Z,12.30
2018-05-17T18:29:36.256Z,12.93
2018-05-17T18:32:04.909Z,13.83
2018-05-17T18:34:34.017Z,19.37
2018-05-17T18:37:02.205Z,12.07
2018-05-17T18:39:30.508Z,10.13
2018-05-17T18:41:58.556Z,18.50
2018-05-17T18:44:26.034Z,10.57
2018-05-17T18:46:53.485Z,20.97
2018-05-17T18:49:20.955Z,17.27
2018-05-17T18:51:48.408Z,14.10
2018-05-17T18:54:16.333Z,15.93
2018-05-17T18:56:43.794Z,13.53
2018-05-17T18:59:11.260Z,16.93
2018-05-17T19:01:39.143Z,15.17
2018-05-17T19:04:06.600Z,13.70
2018-05-17T19:06:34.067Z,15.67
2018-05-17T19:09:01.530Z,11.03
2018-05-17T19:11:28.983Z,16.10
2018-05-17T19:13:56.456Z,12.57
2018-05-17T19:16:23.912Z,17.20
2018-05-17T19:18:51.394Z,15.77
2018-05-17T19:21:19.633Z,19.23
2018-05-17T19:23:47.114Z,12.80
2018-05-17T19:26:15.336Z,12.27
2018-05-17T19:28:43.396Z,22.20
2018-05-17T19:31:11.607Z,16.50
2018-05-17T19:33:39.071Z,11.60
2018-05-17T19:36:07.514Z,14.40
2018-05-17T19:38:34.927Z,14.90
2018-05-17T19:41:05.045Z,14.93
2018-05-17T19:43:32.496Z,20.73
2018-05-17T19:45:59.961Z,13.40
2018-05-17T19:48:28.402Z,13.23
2018-05-17T19:50:55.884Z,13.17
2018-05-17T19:53:23.364Z,14.40
2018-05-17T19:55:51.594Z,14.27
2018-05-17T19:58:19.072Z,11.73
2018-05-17T20:00:46.538Z,22.57
2018-05-17T20:03:13.992Z,13.93
2018-05-17T20:05:42.071Z,15.20
2018-05-17T20:08:10.424Z,13.03
2018-05-17T20:10:38.505Z,13.53
2018-05-17T20:13:06.391Z,16.03
2018-05-17T20:15:34.621Z,15.67
2018-05-17T20:18:02.848Z,14.77
2018-05-17T20:20:31.540Z,17.47
2018-05-17T20:22:59.788Z,13.13
2018-05-17T20:25:27.253Z,16.80
2018-05-17T20:27:54.701Z,14.13
2018-05-17T20:30:22.155Z,20.07
2018-05-17T20:32:49.617Z,17.97
2018-05-17T20:35:17.075Z,16.20
2018-05-17T20:37:44.532Z,15.67
2018-05-17T20:40:11.993Z,14.20
2018-05-17T20:42:40.100Z,11.47
2018-05-17T20:45:07.578Z,13.03
2018-05-17T20:47:35.031Z,14.20
2018-05-17T20:50:02.493Z,13.57
2018-05-17T20:52:29.965Z,14.20
2018-05-17T20:54:57.439Z,16.07
2018-05-17T20:57:24.948Z,8.87
2018-05-17T20:59:52.669Z,13.80
2018-05-17T21:02:20.120Z,14.07
2018-05-17T21:04:47.584Z,15.73
2018-05-17T21:07:15.095Z,17.00
2018-05-17T21:09:42.804Z,18.40
2018-05-17T21:12:10.277Z,11.87
2018-05-17T21:14:38.497Z,18.40
2018-05-17T21:17:05.951Z,10.97
2018-05-17T21:19:33.405Z,19.03
2018-05-17T21:22:00.870Z,17.07
2018-05-17T21:24:28.320Z,13.20
2018-05-17T21:26:56.730Z,15.80
2018-05-17T21:29:24.408Z,14.20
2018-05-17T21:31:52.371Z,12.87
2018-05-17T21:34:19.844Z,13.83
2018-05-17T21:36:48.183Z,13.50
2018-05-17T21:39:18.185Z,14.20
2018-05-17T21:41:45.649Z,11.17
2018-05-17T21:44:13.114Z,16.43
2018-05-17T21:46:40.570Z,19.30
2018-05-17T21:49:08.009Z,9.97
2018-05-17T21:51:35.462Z,11.53
2018-05-17T21:54:02.945Z,12.53
2018-05-17T21:56:30.401Z,20.00
2018-05-17T21:58:57.848Z,16.90
2018-05-17T22:01:26.064Z,16.20
2018-05-17T22:03:53.519Z,11.57
2018-05-17T22:06:20.967Z,15.47
2018-05-17T22:08:48.450Z,18.33
2018-05-17T22:11:15.982Z,16.97
2018-05-17T22:13:43.431Z,15.10
2018-05-17T22:16:10.898Z,15.60
2018-05-17T22:18:38.368Z,13.07
2018-05-17T22:21:05.904Z,14.33
2018-05-17T22:23:33.363Z,12.43
2018-05-17T22:26:00.840Z,13.40
2018-05-17T22:28:28.297Z,14.30
2018-05-17T22:30:55.756Z,14.17
2018-05-17T22:33:23.984Z,14.73
2018-05-17T22:35:51.538Z,16.37
2018-05-17T22:38:18.924Z,15.37
2018-05-17T22:40:46.390Z,10.07
2018-05-17T22:43:14.417Z,17.43
2018-05-17T22:45:43.803Z,13.40
2018-05-17T22:48:11.316Z,15.03
2018-05-17T22:50:39.577Z,16.53
2018-05-17T22:53:07.071Z,16.03
2018-05-17T22:55:35.335Z,15.27
2018-05-17T22:58:14.516Z,17.53
2018-05-17T23:00:42.526Z,16.73
2018-05-17T23:03:10.003Z,19.53
2018-05-17T23:05:37.473Z,18.33
2018-05-17T23:08:06.684Z,19.83
2018-05-17T23:10:34.156Z,14.40
2018-05-17T23:13:01.625Z,16.10
2018-05-17T23:15:29.083Z,10.90
2018-05-17T23:17:56.553Z,14.43
2018-05-17T23:20:24.020Z,14.90
2018-05-17T23:22:51.900Z,15.17
2018-05-17T23:25:19.419Z,14.90
2018-05-17T23:27:46.876Z,10.43
2018-05-17T23:30:14.950Z,15.73
2018-05-17T23:32:42.396Z,19.60
2018-05-17T23:35:13.297Z,14.13
2018-05-17T23:37:41.522Z,17.63
2018-05-17T23:43:11.260Z,16.70
2018-05-17T23:45:38.723Z,16.53
2018-05-17T23:48:06.184Z,16.40
2018-05-17T23:50:33.652Z,16.20
2018-05-17T23:53:01.112Z,9.73
2018-05-17T23:55:28.572Z,16.50
2018-05-17T23:57:56.019Z,15.87
